sensor_id;sensor_type;location;lat;lon;timestamp;temperature;humidity
21425;DHT22;10873;51.132;16.848;2023-02-26T00:01:48;24.60;42.90
21425;DHT22;10873;51.132;16.848;2023-02-26T00:04:14;24.60;42.90
21425;DHT22;10873;51.132;16.848;2023-02-26T00:06:42;24.50;42.80
21425;DHT22;10873;51.132;16.848;2023-02-26T00:09:17;24.50;42.90
21425;DHT22;10873;51.132;16.848;2023-02-26T00:11:44;24.50;43.00
21425;DHT22;10873;51.132;16.848;2023-02-26T00:14:13;24.50;43.10
21425;DHT22;10873;51.132;16.848;2023-02-26T00:16:39;24.50;43.10
21425;DHT22;10873;51.132;16.848;2023-02-26T00:19:07;24.50;43.10
21425;DHT22;10873;51.132;16.848;2023-02-26T00:21:35;24.50;43.00
21425;DHT22;10873;51.132;16.848;2023-02-26T00:24:03;24.50;43.00
21425;DHT22;10873;51.132;16.848;2023-02-26T00:26:31;24.50;42.90
21425;DHT22;10873;51.132;16.848;2023-02-26T00:28:59;24.50;42.80
21425;DHT22;10873;51.132;16.848;2023-02-26T00:31:26;24.50;42.80
21425;DHT22;10873;51.132;16.848;2023-02-26T00:33:53;24.50;42.80
21425;DHT22;10873;51.132;16.848;2023-02-26T00:36:22;24.50;42.90
21425;DHT22;10873;51.132;16.848;2023-02-26T00:39:00;24.40;42.90
21425;DHT22;10873;51.132;16.848;2023-02-26T00:41:28;24.40;42.90
21425;DHT22;10873;51.132;16.848;2023-02-26T00:43:55;24.50;43.00
21425;DHT22;10873;51.132;16.848;2023-02-26T00:46:26;24.50;43.00
21425;DHT22;10873;51.132;16.848;2023-02-26T00:48:58;24.40;42.90
21425;DHT22;10873;51.132;16.848;2023-02-26T00:51:30;24.50;42.90
21425;DHT22;10873;51.132;16.848;2023-02-26T00:54:03;24.50;42.90
21425;DHT22;10873;51.132;16.848;2023-02-26T00:56:31;24.40;42.70
21425;DHT22;10873;51.132;16.848;2023-02-26T00:58:58;24.40;42.70
21425;DHT22;10873;51.132;16.848;2023-02-26T01:01:23;24.40;42.70
21425;DHT22;10873;51.132;16.848;2023-02-26T01:03:50;24.40;42.70
21425;DHT22;10873;51.132;16.848;2023-02-26T01:06:18;24.40;42.80
21425;DHT22;10873;51.132;16.848;2023-02-26T01:08:52;24.40;42.90
21425;DHT22;10873;51.132;16.848;2023-02-26T01:11:19;24.40;42.90
21425;DHT22;10873;51.132;16.848;2023-02-26T01:13:47;24.40;43.00
21425;DHT22;10873;51.132;16.848;2023-02-26T01:16:18;24.40;43.00
21425;DHT22;10873;51.132;16.848;2023-02-26T01:18:49;24.40;42.90
21425;DHT22;10873;51.132;16.848;2023-02-26T01:21:24;24.40;42.90
21425;DHT22;10873;51.132;16.848;2023-02-26T01:23:52;24.40;43.00
21425;DHT22;10873;51.132;16.848;2023-02-26T01:26:23;24.40;42.90
21425;DHT22;10873;51.132;16.848;2023-02-26T01:28:52;24.40;43.00
21425;DHT22;10873;51.132;16.848;2023-02-26T01:31:30;24.30;42.90
21425;DHT22;10873;51.132;16.848;2023-02-26T01:34:01;24.30;42.90
21425;DHT22;10873;51.132;16.848;2023-02-26T01:36:31;24.30;43.00
21425;DHT22;10873;51.132;16.848;2023-02-26T01:39:02;24.30;43.10
21425;DHT22;10873;51.132;16.848;2023-02-26T01:41:32;24.30;43.10
21425;DHT22;10873;51.132;16.848;2023-02-26T01:44:12;24.30;43.20
21425;DHT22;10873;51.132;16.848;2023-02-26T01:47:01;24.30;43.20
21425;DHT22;10873;51.132;16.848;2023-02-26T01:49:29;24.30;43.20
21425;DHT22;10873;51.132;16.848;2023-02-26T01:51:57;24.30;43.20
21425;DHT22;10873;51.132;16.848;2023-02-26T01:54:27;24.30;43.20
21425;DHT22;10873;51.132;16.848;2023-02-26T01:56:58;24.30;43.20
21425;DHT22;10873;51.132;16.848;2023-02-26T01:59:27;24.30;43.10
21425;DHT22;10873;51.132;16.848;2023-02-26T02:01:55;24.30;43.10
21425;DHT22;10873;51.132;16.848;2023-02-26T02:04:22;24.30;43.10
21425;DHT22;10873;51.132;16.848;2023-02-26T02:06:49;24.30;43.00
21425;DHT22;10873;51.132;16.848;2023-02-26T02:09:15;24.30;43.20
21425;DHT22;10873;51.132;16.848;2023-02-26T02:14:55;24.20;43.20
21425;DHT22;10873;51.132;16.848;2023-02-26T02:17:31;24.20;43.20
21425;DHT22;10873;51.132;16.848;2023-02-26T02:20:23;24.20;43.20
21425;DHT22;10873;51.132;16.848;2023-02-26T02:22:59;24.20;43.10
21425;DHT22;10873;51.132;16.848;2023-02-26T02:25:47;24.30;43.10
21425;DHT22;10873;51.132;16.848;2023-02-26T02:28:30;24.30;43.00
21425;DHT22;10873;51.132;16.848;2023-02-26T02:31:04;24.20;43.00
21425;DHT22;10873;51.132;16.848;2023-02-26T02:33:35;24.30;43.00
21425;DHT22;10873;51.132;16.848;2023-02-26T02:36:05;24.20;42.90
21425;DHT22;10873;51.132;16.848;2023-02-26T02:38:36;24.20;43.00
21425;DHT22;10873;51.132;16.848;2023-02-26T02:41:06;24.20;43.10
21425;DHT22;10873;51.132;16.848;2023-02-26T02:43:34;24.20;43.10
21425;DHT22;10873;51.132;16.848;2023-02-26T02:46:06;24.20;43.10
21425;DHT22;10873;51.132;16.848;2023-02-26T02:48:35;24.20;43.10
21425;DHT22;10873;51.132;16.848;2023-02-26T02:51:06;24.20;43.10
21425;DHT22;10873;51.132;16.848;2023-02-26T02:53:34;24.20;43.00
21425;DHT22;10873;51.132;16.848;2023-02-26T02:56:04;24.20;42.90
21425;DHT22;10873;51.132;16.848;2023-02-26T02:58:34;24.20;42.90
21425;DHT22;10873;51.132;16.848;2023-02-26T03:01:08;24.20;42.90
21425;DHT22;10873;51.132;16.848;2023-02-26T03:03:41;24.20;42.80
21425;DHT22;10873;51.132;16.848;2023-02-26T03:06:08;24.20;42.70
21425;DHT22;10873;51.132;16.848;2023-02-26T03:08:37;24.20;42.70
21425;DHT22;10873;51.132;16.848;2023-02-26T03:11:06;24.20;42.70
21425;DHT22;10873;51.132;16.848;2023-02-26T03:13:33;24.20;42.80
21425;DHT22;10873;51.132;16.848;2023-02-26T03:16:12;24.20;42.80
21425;DHT22;10873;51.132;16.848;2023-02-26T03:18:51;24.20;42.90
21425;DHT22;10873;51.132;16.848;2023-02-26T03:21:23;24.20;42.90
21425;DHT22;10873;51.132;16.848;2023-02-26T03:23:57;24.20;42.80
21425;DHT22;10873;51.132;16.848;2023-02-26T03:26:28;24.20;42.80
21425;DHT22;10873;51.132;16.848;2023-02-26T03:29:00;24.20;42.80
21425;DHT22;10873;51.132;16.848;2023-02-26T03:31:34;24.20;42.70
21425;DHT22;10873;51.132;16.848;2023-02-26T03:34:04;24.20;42.70
21425;DHT22;10873;51.132;16.848;2023-02-26T03:36:39;24.20;42.70
21425;DHT22;10873;51.132;16.848;2023-02-26T03:39:10;24.20;42.70
21425;DHT22;10873;51.132;16.848;2023-02-26T03:41:41;24.20;42.60
21425;DHT22;10873;51.132;16.848;2023-02-26T03:44:11;24.20;42.80
21425;DHT22;10873;51.132;16.848;2023-02-26T03:46:42;24.10;42.80
21425;DHT22;10873;51.132;16.848;2023-02-26T03:49:13;24.20;42.90
21425;DHT22;10873;51.132;16.848;2023-02-26T03:51:40;24.20;42.80
21425;DHT22;10873;51.132;16.848;2023-02-26T03:54:10;24.20;42.90
21425;DHT22;10873;51.132;16.848;2023-02-26T03:56:41;24.20;42.70
21425;DHT22;10873;51.132;16.848;2023-02-26T03:59:08;24.20;42.70
21425;DHT22;10873;51.132;16.848;2023-02-26T04:01:40;24.20;42.70
21425;DHT22;10873;51.132;16.848;2023-02-26T04:04:11;24.20;42.70
21425;DHT22;10873;51.132;16.848;2023-02-26T04:06:37;24.20;42.60
21425;DHT22;10873;51.132;16.848;2023-02-26T04:09:04;24.10;42.60
21425;DHT22;10873;51.132;16.848;2023-02-26T04:11:31;24.10;42.60
21425;DHT22;10873;51.132;16.848;2023-02-26T04:13:58;24.10;42.60
21425;DHT22;10873;51.132;16.848;2023-02-26T04:16:25;24.10;42.70
21425;DHT22;10873;51.132;16.848;2023-02-26T04:18:52;24.10;42.70
21425;DHT22;10873;51.132;16.848;2023-02-26T04:21:21;24.10;42.70
21425;DHT22;10873;51.132;16.848;2023-02-26T04:23:47;24.10;42.70
21425;DHT22;10873;51.132;16.848;2023-02-26T04:26:13;24.10;42.70
21425;DHT22;10873;51.132;16.848;2023-02-26T04:28:39;24.10;42.60
21425;DHT22;10873;51.132;16.848;2023-02-26T04:31:06;24.20;42.60
21425;DHT22;10873;51.132;16.848;2023-02-26T04:33:32;24.20;42.50
21425;DHT22;10873;51.132;16.848;2023-02-26T04:36:00;24.20;42.40
21425;DHT22;10873;51.132;16.848;2023-02-26T04:38:26;24.10;42.30
21425;DHT22;10873;51.132;16.848;2023-02-26T04:40:53;24.20;43.00
21425;DHT22;10873;51.132;16.848;2023-02-26T04:43:19;24.10;42.20
21425;DHT22;10873;51.132;16.848;2023-02-26T04:45:46;24.10;42.20
21425;DHT22;10873;51.132;16.848;2023-02-26T04:48:12;24.10;42.20
21425;DHT22;10873;51.132;16.848;2023-02-26T04:50:38;24.10;42.20
21425;DHT22;10873;51.132;16.848;2023-02-26T04:53:05;24.10;42.30
21425;DHT22;10873;51.132;16.848;2023-02-26T04:55:32;24.10;42.30
21425;DHT22;10873;51.132;16.848;2023-02-26T04:57:58;24.10;42.20
21425;DHT22;10873;51.132;16.848;2023-02-26T05:00:25;24.10;42.20
21425;DHT22;10873;51.132;16.848;2023-02-26T05:02:50;24.10;42.20
21425;DHT22;10873;51.132;16.848;2023-02-26T05:05:17;24.10;42.10
21425;DHT22;10873;51.132;16.848;2023-02-26T05:07:43;24.10;42.10
21425;DHT22;10873;51.132;16.848;2023-02-26T05:10:11;24.10;42.10
21425;DHT22;10873;51.132;16.848;2023-02-26T05:12:37;24.10;42.00
21425;DHT22;10873;51.132;16.848;2023-02-26T05:15:04;24.10;42.10
21425;DHT22;10873;51.132;16.848;2023-02-26T05:17:31;24.10;42.10
21425;DHT22;10873;51.132;16.848;2023-02-26T05:19:57;24.10;42.10
21425;DHT22;10873;51.132;16.848;2023-02-26T05:22:23;24.10;42.20
21425;DHT22;10873;51.132;16.848;2023-02-26T05:24:49;24.00;42.20
21425;DHT22;10873;51.132;16.848;2023-02-26T05:27:16;24.00;42.20
21425;DHT22;10873;51.132;16.848;2023-02-26T05:29:43;24.00;42.20
21425;DHT22;10873;51.132;16.848;2023-02-26T05:32:09;24.00;42.20
21425;DHT22;10873;51.132;16.848;2023-02-26T05:34:35;24.10;42.20
21425;DHT22;10873;51.132;16.848;2023-02-26T05:37:01;24.10;42.20
21425;DHT22;10873;51.132;16.848;2023-02-26T05:39:27;24.10;42.20
21425;DHT22;10873;51.132;16.848;2023-02-26T05:41:54;24.10;42.20
21425;DHT22;10873;51.132;16.848;2023-02-26T05:44:21;24.00;42.10
21425;DHT22;10873;51.132;16.848;2023-02-26T05:46:47;24.00;42.10
21425;DHT22;10873;51.132;16.848;2023-02-26T05:49:13;24.00;42.00
21425;DHT22;10873;51.132;16.848;2023-02-26T05:51:39;24.00;42.20
21425;DHT22;10873;51.132;16.848;2023-02-26T05:54:07;24.00;42.20
21425;DHT22;10873;51.132;16.848;2023-02-26T05:56:33;24.00;42.20
21425;DHT22;10873;51.132;16.848;2023-02-26T05:58:59;24.00;43.00
21425;DHT22;10873;51.132;16.848;2023-02-26T06:01:26;24.00;42.40
21425;DHT22;10873;51.132;16.848;2023-02-26T06:03:53;24.00;42.50
21425;DHT22;10873;51.132;16.848;2023-02-26T06:06:19;24.00;42.60
21425;DHT22;10873;51.132;16.848;2023-02-26T06:08:46;24.00;42.60
21425;DHT22;10873;51.132;16.848;2023-02-26T06:11:13;24.00;42.60
21425;DHT22;10873;51.132;16.848;2023-02-26T06:13:39;24.00;42.60
21425;DHT22;10873;51.132;16.848;2023-02-26T06:16:05;24.00;44.30
21425;DHT22;10873;51.132;16.848;2023-02-26T06:18:33;24.00;45.20
21425;DHT22;10873;51.132;16.848;2023-02-26T06:20:59;24.00;46.50
21425;DHT22;10873;51.132;16.848;2023-02-26T06:23:25;24.00;45.60
21425;DHT22;10873;51.132;16.848;2023-02-26T06:25:51;24.00;45.30
21425;DHT22;10873;51.132;16.848;2023-02-26T06:28:18;24.00;45.10
21425;DHT22;10873;51.132;16.848;2023-02-26T06:30:45;24.00;44.80
21425;DHT22;10873;51.132;16.848;2023-02-26T06:33:11;24.00;44.50
21425;DHT22;10873;51.132;16.848;2023-02-26T06:35:39;24.00;44.20
21425;DHT22;10873;51.132;16.848;2023-02-26T06:38:05;24.00;44.00
21425;DHT22;10873;51.132;16.848;2023-02-26T06:40:31;24.00;43.80
21425;DHT22;10873;51.132;16.848;2023-02-26T06:42:57;24.00;43.70
21425;DHT22;10873;51.132;16.848;2023-02-26T06:45:23;24.00;43.50
21425;DHT22;10873;51.132;16.848;2023-02-26T06:47:50;24.00;43.40
21425;DHT22;10873;51.132;16.848;2023-02-26T06:50:16;23.90;43.30
21425;DHT22;10873;51.132;16.848;2023-02-26T06:52:44;23.90;43.20
21425;DHT22;10873;51.132;16.848;2023-02-26T06:55:11;23.90;43.80
21425;DHT22;10873;51.132;16.848;2023-02-26T06:57:37;24.00;46.00
21425;DHT22;10873;51.132;16.848;2023-02-26T07:00:05;23.90;45.60
21425;DHT22;10873;51.132;16.848;2023-02-26T07:02:31;23.90;45.40
21425;DHT22;10873;51.132;16.848;2023-02-26T07:04:57;23.90;45.10
21425;DHT22;10873;51.132;16.848;2023-02-26T07:07:24;23.90;45.10
21425;DHT22;10873;51.132;16.848;2023-02-26T07:09:51;23.80;44.80
21425;DHT22;10873;51.132;16.848;2023-02-26T07:12:17;23.80;44.70
21425;DHT22;10873;51.132;16.848;2023-02-26T07:14:43;23.80;45.50
21425;DHT22;10873;51.132;16.848;2023-02-26T07:17:11;23.80;44.70
21425;DHT22;10873;51.132;16.848;2023-02-26T07:19:45;23.70;44.60
21425;DHT22;10873;51.132;16.848;2023-02-26T07:22:11;23.70;44.90
21425;DHT22;10873;51.132;16.848;2023-02-26T07:24:37;23.70;44.80
21425;DHT22;10873;51.132;16.848;2023-02-26T07:27:04;23.70;44.80
21425;DHT22;10873;51.132;16.848;2023-02-26T07:29:30;23.70;44.90
21425;DHT22;10873;51.132;16.848;2023-02-26T07:31:56;23.70;45.00
21425;DHT22;10873;51.132;16.848;2023-02-26T07:34:23;23.60;45.00
21425;DHT22;10873;51.132;16.848;2023-02-26T07:36:49;23.60;45.00
21425;DHT22;10873;51.132;16.848;2023-02-26T07:39:15;23.60;45.30
21425;DHT22;10873;51.132;16.848;2023-02-26T07:41:41;23.60;45.50
21425;DHT22;10873;51.132;16.848;2023-02-26T07:44:09;23.60;45.90
21425;DHT22;10873;51.132;16.848;2023-02-26T07:46:35;23.60;45.80
21425;DHT22;10873;51.132;16.848;2023-02-26T07:49:01;23.60;45.80
21425;DHT22;10873;51.132;16.848;2023-02-26T07:51:27;23.60;45.90
21425;DHT22;10873;51.132;16.848;2023-02-26T07:53:53;23.60;45.80
21425;DHT22;10873;51.132;16.848;2023-02-26T07:56:19;23.60;45.80
21425;DHT22;10873;51.132;16.848;2023-02-26T07:58:45;23.60;45.80
21425;DHT22;10873;51.132;16.848;2023-02-26T08:01:12;23.60;45.70
21425;DHT22;10873;51.132;16.848;2023-02-26T08:03:38;23.60;45.60
21425;DHT22;10873;51.132;16.848;2023-02-26T08:06:05;23.60;45.70
21425;DHT22;10873;51.132;16.848;2023-02-26T08:08:33;23.60;45.70
21425;DHT22;10873;51.132;16.848;2023-02-26T08:11:00;23.60;45.60
21425;DHT22;10873;51.132;16.848;2023-02-26T08:13:26;23.60;46.30
21425;DHT22;10873;51.132;16.848;2023-02-26T08:15:52;23.60;45.70
21425;DHT22;10873;51.132;16.848;2023-02-26T08:18:19;23.60;45.80
21425;DHT22;10873;51.132;16.848;2023-02-26T08:20:45;23.60;46.00
21425;DHT22;10873;51.132;16.848;2023-02-26T08:23:11;23.60;46.00
21425;DHT22;10873;51.132;16.848;2023-02-26T08:25:38;23.60;45.90
21425;DHT22;10873;51.132;16.848;2023-02-26T08:28:04;23.60;45.90
21425;DHT22;10873;51.132;16.848;2023-02-26T08:30:30;23.60;45.90
21425;DHT22;10873;51.132;16.848;2023-02-26T08:32:56;23.60;45.90
21425;DHT22;10873;51.132;16.848;2023-02-26T08:35:24;23.60;45.80
21425;DHT22;10873;51.132;16.848;2023-02-26T08:37:49;23.60;45.80
21425;DHT22;10873;51.132;16.848;2023-02-26T08:40:16;23.60;45.80
21425;DHT22;10873;51.132;16.848;2023-02-26T08:42:42;23.60;45.70
21425;DHT22;10873;51.132;16.848;2023-02-26T08:45:08;23.60;45.70
21425;DHT22;10873;51.132;16.848;2023-02-26T08:47:34;23.60;45.80
21425;DHT22;10873;51.132;16.848;2023-02-26T08:50:01;23.60;45.90
21425;DHT22;10873;51.132;16.848;2023-02-26T08:52:29;23.60;45.80
21425;DHT22;10873;51.132;16.848;2023-02-26T08:54:55;23.60;45.70
21425;DHT22;10873;51.132;16.848;2023-02-26T08:57:21;23.60;45.70
21425;DHT22;10873;51.132;16.848;2023-02-26T08:59:47;23.60;45.60
21425;DHT22;10873;51.132;16.848;2023-02-26T09:02:13;23.60;45.60
21425;DHT22;10873;51.132;16.848;2023-02-26T09:04:40;23.60;45.60
21425;DHT22;10873;51.132;16.848;2023-02-26T09:07:06;23.60;45.60
21425;DHT22;10873;51.132;16.848;2023-02-26T09:09:33;23.60;45.50
21425;DHT22;10873;51.132;16.848;2023-02-26T09:11:59;23.60;45.50
21425;DHT22;10873;51.132;16.848;2023-02-26T09:14:26;23.60;45.60
21425;DHT22;10873;51.132;16.848;2023-02-26T09:16:52;23.60;45.70
21425;DHT22;10873;51.132;16.848;2023-02-26T09:19:18;23.60;45.80
21425;DHT22;10873;51.132;16.848;2023-02-26T09:21:43;23.60;45.80
21425;DHT22;10873;51.132;16.848;2023-02-26T09:24:10;23.60;45.80
21425;DHT22;10873;51.132;16.848;2023-02-26T09:26:37;23.60;45.70
21425;DHT22;10873;51.132;16.848;2023-02-26T09:29:03;23.60;45.70
21425;DHT22;10873;51.132;16.848;2023-02-26T09:31:29;23.60;45.70
21425;DHT22;10873;51.132;16.848;2023-02-26T09:33:55;23.60;45.60
21425;DHT22;10873;51.132;16.848;2023-02-26T09:36:21;23.60;45.60
21425;DHT22;10873;51.132;16.848;2023-02-26T09:38:47;23.60;45.70
21425;DHT22;10873;51.132;16.848;2023-02-26T09:41:18;23.60;45.60
21425;DHT22;10873;51.132;16.848;2023-02-26T09:44:12;23.60;45.70
21425;DHT22;10873;51.132;16.848;2023-02-26T09:46:45;23.60;45.70
21425;DHT22;10873;51.132;16.848;2023-02-26T09:49:19;23.60;45.80
21425;DHT22;10873;51.132;16.848;2023-02-26T09:51:48;23.60;45.80
21425;DHT22;10873;51.132;16.848;2023-02-26T09:54:19;23.60;45.80
21425;DHT22;10873;51.132;16.848;2023-02-26T09:56:47;23.60;45.80
21425;DHT22;10873;51.132;16.848;2023-02-26T09:59:16;23.60;45.70
21425;DHT22;10873;51.132;16.848;2023-02-26T10:01:47;23.60;45.60
21425;DHT22;10873;51.132;16.848;2023-02-26T10:04:24;23.60;45.60
21425;DHT22;10873;51.132;16.848;2023-02-26T10:07:00;23.60;45.60
21425;DHT22;10873;51.132;16.848;2023-02-26T10:09:35;23.60;45.60
21425;DHT22;10873;51.132;16.848;2023-02-26T10:12:07;23.60;45.60
21425;DHT22;10873;51.132;16.848;2023-02-26T10:14:40;23.60;45.60
21425;DHT22;10873;51.132;16.848;2023-02-26T10:17:21;23.60;45.50
21425;DHT22;10873;51.132;16.848;2023-02-26T10:19:51;23.60;45.60
21425;DHT22;10873;51.132;16.848;2023-02-26T10:22:23;23.60;45.60
21425;DHT22;10873;51.132;16.848;2023-02-26T10:24:57;23.60;45.70
21425;DHT22;10873;51.132;16.848;2023-02-26T10:27:37;23.60;45.60
21425;DHT22;10873;51.132;16.848;2023-02-26T10:30:12;23.60;45.50
21425;DHT22;10873;51.132;16.848;2023-02-26T10:32:44;23.60;45.50
21425;DHT22;10873;51.132;16.848;2023-02-26T10:35:15;23.70;45.60
21425;DHT22;10873;51.132;16.848;2023-02-26T10:37:46;23.70;45.50
21425;DHT22;10873;51.132;16.848;2023-02-26T10:40:17;23.70;45.50
21425;DHT22;10873;51.132;16.848;2023-02-26T10:42:47;23.60;45.40
21425;DHT22;10873;51.132;16.848;2023-02-26T10:45:34;23.70;45.40
21425;DHT22;10873;51.132;16.848;2023-02-26T10:48:13;23.60;45.40
21425;DHT22;10873;51.132;16.848;2023-02-26T10:50:47;23.70;46.10
21425;DHT22;10873;51.132;16.848;2023-02-26T10:53:14;23.60;45.50
21425;DHT22;10873;51.132;16.848;2023-02-26T10:55:42;23.70;45.50
21425;DHT22;10873;51.132;16.848;2023-02-26T10:58:11;23.70;45.50
21425;DHT22;10873;51.132;16.848;2023-02-26T11:00:42;23.70;45.50
21425;DHT22;10873;51.132;16.848;2023-02-26T11:03:13;23.70;45.70
21425;DHT22;10873;51.132;16.848;2023-02-26T11:05:40;23.70;45.50
21425;DHT22;10873;51.132;16.848;2023-02-26T11:08:10;23.70;45.50
21425;DHT22;10873;51.132;16.848;2023-02-26T11:10:41;23.70;45.50
21425;DHT22;10873;51.132;16.848;2023-02-26T11:13:09;23.70;45.50
21425;DHT22;10873;51.132;16.848;2023-02-26T11:15:35;23.70;45.50
21425;DHT22;10873;51.132;16.848;2023-02-26T11:18:03;23.80;45.50
21425;DHT22;10873;51.132;16.848;2023-02-26T11:20:33;23.70;45.50
21425;DHT22;10873;51.132;16.848;2023-02-26T11:23:03;23.70;45.40
21425;DHT22;10873;51.132;16.848;2023-02-26T11:25:32;23.70;45.40
21425;DHT22;10873;51.132;16.848;2023-02-26T11:28:01;23.70;45.40
21425;DHT22;10873;51.132;16.848;2023-02-26T11:30:31;23.70;45.40
21425;DHT22;10873;51.132;16.848;2023-02-26T11:33:05;23.70;45.40
21425;DHT22;10873;51.132;16.848;2023-02-26T11:35:36;23.70;45.40
21425;DHT22;10873;51.132;16.848;2023-02-26T11:38:02;23.70;45.40
21425;DHT22;10873;51.132;16.848;2023-02-26T11:40:34;23.70;45.40
21425;DHT22;10873;51.132;16.848;2023-02-26T11:43:04;23.70;45.40
21425;DHT22;10873;51.132;16.848;2023-02-26T11:45:34;23.70;45.30
21425;DHT22;10873;51.132;16.848;2023-02-26T11:48:03;23.80;45.30
21425;DHT22;10873;51.132;16.848;2023-02-26T11:50:35;23.80;45.40
21425;DHT22;10873;51.132;16.848;2023-02-26T11:53:05;23.80;45.40
21425;DHT22;10873;51.132;16.848;2023-02-26T11:55:36;23.80;45.40
21425;DHT22;10873;51.132;16.848;2023-02-26T11:58:19;23.80;45.40
21425;DHT22;10873;51.132;16.848;2023-02-26T12:00:45;23.80;45.40
21425;DHT22;10873;51.132;16.848;2023-02-26T12:03:16;23.80;45.40
21425;DHT22;10873;51.132;16.848;2023-02-26T12:05:45;23.80;45.40
21425;DHT22;10873;51.132;16.848;2023-02-26T12:08:17;23.80;45.50
21425;DHT22;10873;51.132;16.848;2023-02-26T12:10:52;23.70;45.30
21425;DHT22;10873;51.132;16.848;2023-02-26T12:13:26;23.70;45.30
21425;DHT22;10873;51.132;16.848;2023-02-26T12:15:59;23.70;45.30
21425;DHT22;10873;51.132;16.848;2023-02-26T12:18:45;23.70;45.40
21425;DHT22;10873;51.132;16.848;2023-02-26T12:21:24;23.80;45.40
21425;DHT22;10873;51.132;16.848;2023-02-26T12:24:34;23.80;45.20
21425;DHT22;10873;51.132;16.848;2023-02-26T12:27:10;23.80;45.30
21425;DHT22;10873;51.132;16.848;2023-02-26T12:29:49;23.80;45.20
21425;DHT22;10873;51.132;16.848;2023-02-26T12:32:39;23.80;45.10
21425;DHT22;10873;51.132;16.848;2023-02-26T12:35:32;23.80;45.00
21425;DHT22;10873;51.132;16.848;2023-02-26T12:38:08;23.80;45.00
21425;DHT22;10873;51.132;16.848;2023-02-26T12:40:48;23.80;45.10
21425;DHT22;10873;51.132;16.848;2023-02-26T12:43:21;23.80;45.10
21425;DHT22;10873;51.132;16.848;2023-02-26T12:45:53;23.80;45.70
21425;DHT22;10873;51.132;16.848;2023-02-26T12:48:54;23.80;45.00
21425;DHT22;10873;51.132;16.848;2023-02-26T12:51:36;23.70;45.00
21425;DHT22;10873;51.132;16.848;2023-02-26T12:54:24;23.70;45.00
21425;DHT22;10873;51.132;16.848;2023-02-26T12:57:04;23.70;45.00
21425;DHT22;10873;51.132;16.848;2023-02-26T12:59:48;23.70;45.50
21425;DHT22;10873;51.132;16.848;2023-02-26T13:05:38;23.80;45.10
21425;DHT22;10873;51.132;16.848;2023-02-26T13:08:13;23.80;45.10
21425;DHT22;10873;51.132;16.848;2023-02-26T13:11:02;23.80;45.10
21425;DHT22;10873;51.132;16.848;2023-02-26T13:14:05;23.80;45.10
21425;DHT22;10873;51.132;16.848;2023-02-26T13:16:41;23.80;45.00
21425;DHT22;10873;51.132;16.848;2023-02-26T13:19:21;23.90;45.10
21425;DHT22;10873;51.132;16.848;2023-02-26T13:21:55;23.90;45.10
21425;DHT22;10873;51.132;16.848;2023-02-26T13:24:24;23.90;45.20
21425;DHT22;10873;51.132;16.848;2023-02-26T13:26:53;23.90;45.20
21425;DHT22;10873;51.132;16.848;2023-02-26T13:29:23;23.80;45.10
21425;DHT22;10873;51.132;16.848;2023-02-26T13:31:54;23.80;45.10
21425;DHT22;10873;51.132;16.848;2023-02-26T13:34:28;23.80;45.00
21425;DHT22;10873;51.132;16.848;2023-02-26T13:36:56;23.80;45.10
21425;DHT22;10873;51.132;16.848;2023-02-26T13:39:37;23.80;45.20
21425;DHT22;10873;51.132;16.848;2023-02-26T13:42:18;23.80;45.50
21425;DHT22;10873;51.132;16.848;2023-02-26T13:44:53;23.80;45.50
21425;DHT22;10873;51.132;16.848;2023-02-26T13:47:35;23.80;45.60
21425;DHT22;10873;51.132;16.848;2023-02-26T13:50:25;23.80;45.60
21425;DHT22;10873;51.132;16.848;2023-02-26T13:52:53;23.80;45.60
21425;DHT22;10873;51.132;16.848;2023-02-26T13:55:42;23.80;45.60
21425;DHT22;10873;51.132;16.848;2023-02-26T13:58:33;23.80;45.60
21425;DHT22;10873;51.132;16.848;2023-02-26T14:01:05;23.80;45.60
21425;DHT22;10873;51.132;16.848;2023-02-26T14:03:34;23.80;45.60
21425;DHT22;10873;51.132;16.848;2023-02-26T14:06:21;23.80;45.60
21425;DHT22;10873;51.132;16.848;2023-02-26T14:08:51;23.80;45.70
21425;DHT22;10873;51.132;16.848;2023-02-26T14:11:36;23.80;45.70
21425;DHT22;10873;51.132;16.848;2023-02-26T14:14:11;23.80;45.80
21425;DHT22;10873;51.132;16.848;2023-02-26T14:16:40;23.80;45.80
21425;DHT22;10873;51.132;16.848;2023-02-26T14:19:20;23.80;45.80
21425;DHT22;10873;51.132;16.848;2023-02-26T14:21:50;23.80;45.80
21425;DHT22;10873;51.132;16.848;2023-02-26T14:24:21;23.80;45.90
21425;DHT22;10873;51.132;16.848;2023-02-26T14:26:48;23.80;45.90
21425;DHT22;10873;51.132;16.848;2023-02-26T14:29:21;23.80;45.90
21425;DHT22;10873;51.132;16.848;2023-02-26T14:31:56;23.80;45.90
21425;DHT22;10873;51.132;16.848;2023-02-26T14:34:28;23.80;46.00
21425;DHT22;10873;51.132;16.848;2023-02-26T14:36:57;23.80;46.00
21425;DHT22;10873;51.132;16.848;2023-02-26T14:39:28;23.80;46.00
21425;DHT22;10873;51.132;16.848;2023-02-26T14:41:58;23.80;46.00
21425;DHT22;10873;51.132;16.848;2023-02-26T14:44:27;23.80;46.00
21425;DHT22;10873;51.132;16.848;2023-02-26T14:46:55;23.80;46.00
21425;DHT22;10873;51.132;16.848;2023-02-26T14:49:24;23.80;46.00
21425;DHT22;10873;51.132;16.848;2023-02-26T14:52:05;23.80;46.00
21425;DHT22;10873;51.132;16.848;2023-02-26T14:57:42;23.80;46.20
21425;DHT22;10873;51.132;16.848;2023-02-26T15:00:23;23.80;46.20
21425;DHT22;10873;51.132;16.848;2023-02-26T15:03:23;23.80;46.20
21425;DHT22;10873;51.132;16.848;2023-02-26T15:06:01;23.80;46.10
21425;DHT22;10873;51.132;16.848;2023-02-26T15:08:51;23.90;46.10
21425;DHT22;10873;51.132;16.848;2023-02-26T15:11:35;23.90;46.00
21425;DHT22;10873;51.132;16.848;2023-02-26T15:14:18;23.90;46.00
21425;DHT22;10873;51.132;16.848;2023-02-26T15:16:59;23.90;46.00
21425;DHT22;10873;51.132;16.848;2023-02-26T15:19:39;23.90;45.90
21425;DHT22;10873;51.132;16.848;2023-02-26T15:22:18;23.90;45.90
21425;DHT22;10873;51.132;16.848;2023-02-26T15:24:47;23.90;45.90
21425;DHT22;10873;51.132;16.848;2023-02-26T15:27:16;23.90;45.80
21425;DHT22;10873;51.132;16.848;2023-02-26T15:29:43;23.90;45.80
21425;DHT22;10873;51.132;16.848;2023-02-26T15:32:20;23.90;45.70
21425;DHT22;10873;51.132;16.848;2023-02-26T15:34:48;23.90;45.80
21425;DHT22;10873;51.132;16.848;2023-02-26T15:37:21;23.90;45.70
21425;DHT22;10873;51.132;16.848;2023-02-26T15:39:48;23.90;45.70
21425;DHT22;10873;51.132;16.848;2023-02-26T15:42:15;23.90;45.60
21425;DHT22;10873;51.132;16.848;2023-02-26T15:44:43;23.90;45.50
21425;DHT22;10873;51.132;16.848;2023-02-26T15:47:09;23.90;45.50